sensor_id;sensor_type;location;lat;lon;timestamp;temperature;humidity
56725;DHT22;42608;52.776;6.968;2022-07-22T00:01:32;16.30;99.90
56725;DHT22;42608;52.776;6.968;2022-07-22T00:03:58;16.30;99.90
56725;DHT22;42608;52.776;6.968;2022-07-22T00:06:25;16.20;99.90
56725;DHT22;42608;52.776;6.968;2022-07-22T00:08:50;16.20;99.90
56725;DHT22;42608;52.776;6.968;2022-07-22T00:11:16;16.20;99.90
56725;DHT22;42608;52.776;6.968;2022-07-22T00:13:41;16.10;99.90
56725;DHT22;42608;52.776;6.968;2022-07-22T00:16:07;16.20;99.90
56725;DHT22;42608;52.776;6.968;2022-07-22T00:18:33;16.20;99.90
56725;DHT22;42608;52.776;6.968;2022-07-22T00:20:58;16.10;99.90
56725;DHT22;42608;52.776;6.968;2022-07-22T00:23:24;16.10;99.90
56725;DHT22;42608;52.776;6.968;2022-07-22T00:25:49;16.20;99.90
56725;DHT22;42608;52.776;6.968;2022-07-22T00:28:15;16.20;99.90
56725;DHT22;42608;52.776;6.968;2022-07-22T00:30:40;16.10;99.90
56725;DHT22;42608;52.776;6.968;2022-07-22T00:33:06;16.10;99.90
56725;DHT22;42608;52.776;6.968;2022-07-22T00:35:31;16.00;99.90
56725;DHT22;42608;52.776;6.968;2022-07-22T00:37:57;16.00;99.90
56725;DHT22;42608;52.776;6.968;2022-07-22T00:40:23;16.00;99.90
56725;DHT22;42608;52.776;6.968;2022-07-22T00:42:48;15.90;99.90
56725;DHT22;42608;52.776;6.968;2022-07-22T00:45:14;15.90;99.90
56725;DHT22;42608;52.776;6.968;2022-07-22T00:47:40;15.90;99.90
56725;DHT22;42608;52.776;6.968;2022-07-22T00:50:06;15.80;99.90
56725;DHT22;42608;52.776;6.968;2022-07-22T00:52:32;15.80;99.90
56725;DHT22;42608;52.776;6.968;2022-07-22T00:54:58;15.80;99.90
56725;DHT22;42608;52.776;6.968;2022-07-22T00:57:24;15.80;99.90
56725;DHT22;42608;52.776;6.968;2022-07-22T00:59:50;15.80;99.90
56725;DHT22;42608;52.776;6.968;2022-07-22T01:02:15;15.80;99.90
56725;DHT22;42608;52.776;6.968;2022-07-22T01:04:41;15.80;99.90
56725;DHT22;42608;52.776;6.968;2022-07-22T01:07:06;15.80;99.90
56725;DHT22;42608;52.776;6.968;2022-07-22T01:09:32;15.80;99.90
56725;DHT22;42608;52.776;6.968;2022-07-22T01:11:58;15.80;99.90
56725;DHT22;42608;52.776;6.968;2022-07-22T01:14:23;15.80;99.90
56725;DHT22;42608;52.776;6.968;2022-07-22T01:16:49;15.80;99.90
56725;DHT22;42608;52.776;6.968;2022-07-22T01:19:14;15.80;99.90
56725;DHT22;42608;52.776;6.968;2022-07-22T01:21:40;15.80;99.90
56725;DHT22;42608;52.776;6.968;2022-07-22T01:24:06;15.80;99.90
56725;DHT22;42608;52.776;6.968;2022-07-22T01:26:32;15.80;99.90
56725;DHT22;42608;52.776;6.968;2022-07-22T01:28:58;15.90;99.90
56725;DHT22;42608;52.776;6.968;2022-07-22T01:31:24;15.90;99.90
56725;DHT22;42608;52.776;6.968;2022-07-22T01:33:50;15.90;99.90
56725;DHT22;42608;52.776;6.968;2022-07-22T01:36:15;15.90;99.90
56725;DHT22;42608;52.776;6.968;2022-07-22T01:38:41;15.90;99.90
56725;DHT22;42608;52.776;6.968;2022-07-22T01:41:06;15.90;99.90
56725;DHT22;42608;52.776;6.968;2022-07-22T01:43:32;15.90;99.90
56725;DHT22;42608;52.776;6.968;2022-07-22T01:45:58;15.80;99.90
56725;DHT22;42608;52.776;6.968;2022-07-22T01:48:24;15.80;99.90
56725;DHT22;42608;52.776;6.968;2022-07-22T01:50:50;15.80;99.90
56725;DHT22;42608;52.776;6.968;2022-07-22T01:53:16;15.80;99.90
56725;DHT22;42608;52.776;6.968;2022-07-22T01:55:41;15.90;99.90
56725;DHT22;42608;52.776;6.968;2022-07-22T01:58:07;15.80;99.90
56725;DHT22;42608;52.776;6.968;2022-07-22T02:00:33;15.90;99.90
56725;DHT22;42608;52.776;6.968;2022-07-22T02:02:58;15.80;99.90
56725;DHT22;42608;52.776;6.968;2022-07-22T02:05:24;15.80;99.90
56725;DHT22;42608;52.776;6.968;2022-07-22T02:07:50;15.80;99.90
56725;DHT22;42608;52.776;6.968;2022-07-22T02:10:15;15.80;99.90
56725;DHT22;42608;52.776;6.968;2022-07-22T02:12:41;15.80;99.90
56725;DHT22;42608;52.776;6.968;2022-07-22T02:15:06;15.80;99.90
56725;DHT22;42608;52.776;6.968;2022-07-22T02:17:32;15.80;99.90
56725;DHT22;42608;52.776;6.968;2022-07-22T02:19:58;15.80;99.90
56725;DHT22;42608;52.776;6.968;2022-07-22T02:22:24;15.80;99.90
56725;DHT22;42608;52.776;6.968;2022-07-22T02:24:50;15.80;99.90
56725;DHT22;42608;52.776;6.968;2022-07-22T02:27:15;15.80;99.90
56725;DHT22;42608;52.776;6.968;2022-07-22T02:29:41;15.80;99.90
56725;DHT22;42608;52.776;6.968;2022-07-22T02:32:07;15.70;99.90
56725;DHT22;42608;52.776;6.968;2022-07-22T02:34:32;15.80;99.90
56725;DHT22;42608;52.776;6.968;2022-07-22T02:36:58;15.70;99.90
56725;DHT22;42608;52.776;6.968;2022-07-22T02:39:23;15.70;99.90
56725;DHT22;42608;52.776;6.968;2022-07-22T02:41:49;15.80;99.90
56725;DHT22;42608;52.776;6.968;2022-07-22T02:44:14;15.80;99.90
56725;DHT22;42608;52.776;6.968;2022-07-22T02:46:40;15.80;99.90
56725;DHT22;42608;52.776;6.968;2022-07-22T02:49:05;15.80;99.90
56725;DHT22;42608;52.776;6.968;2022-07-22T02:51:31;15.70;99.90
56725;DHT22;42608;52.776;6.968;2022-07-22T02:53:56;15.70;99.90
56725;DHT22;42608;52.776;6.968;2022-07-22T02:56:22;15.70;99.90
56725;DHT22;42608;52.776;6.968;2022-07-22T02:58:48;15.70;99.90
56725;DHT22;42608;52.776;6.968;2022-07-22T03:01:17;15.70;99.90
56725;DHT22;42608;52.776;6.968;2022-07-22T03:03:44;15.70;99.90
56725;DHT22;42608;52.776;6.968;2022-07-22T03:06:09;15.70;99.90
56725;DHT22;42608;52.776;6.968;2022-07-22T03:08:35;15.70;99.90
56725;DHT22;42608;52.776;6.968;2022-07-22T03:11:01;15.60;99.90
56725;DHT22;42608;52.776;6.968;2022-07-22T03:13:26;15.70;99.90
56725;DHT22;42608;52.776;6.968;2022-07-22T03:15:52;15.60;99.90
56725;DHT22;42608;52.776;6.968;2022-07-22T03:18:18;15.60;99.90
56725;DHT22;42608;52.776;6.968;2022-07-22T03:20:43;15.60;99.90
56725;DHT22;42608;52.776;6.968;2022-07-22T03:23:09;15.60;99.90
56725;DHT22;42608;52.776;6.968;2022-07-22T03:25:34;15.60;99.90
56725;DHT22;42608;52.776;6.968;2022-07-22T03:28:00;15.60;99.90
56725;DHT22;42608;52.776;6.968;2022-07-22T03:30:25;15.60;99.90
56725;DHT22;42608;52.776;6.968;2022-07-22T03:32:51;15.60;99.90
56725;DHT22;42608;52.776;6.968;2022-07-22T03:35:17;15.60;99.90
56725;DHT22;42608;52.776;6.968;2022-07-22T03:37:42;15.60;99.90
56725;DHT22;42608;52.776;6.968;2022-07-22T03:40:09;15.60;99.90
56725;DHT22;42608;52.776;6.968;2022-07-22T03:42:35;15.60;99.90
56725;DHT22;42608;52.776;6.968;2022-07-22T03:45:00;15.60;99.90
56725;DHT22;42608;52.776;6.968;2022-07-22T03:47:26;15.60;99.90
56725;DHT22;42608;52.776;6.968;2022-07-22T03:49:51;15.60;99.90
56725;DHT22;42608;52.776;6.968;2022-07-22T03:52:17;15.60;99.90
56725;DHT22;42608;52.776;6.968;2022-07-22T03:54:43;15.60;99.90
56725;DHT22;42608;52.776;6.968;2022-07-22T03:57:09;15.60;99.90
56725;DHT22;42608;52.776;6.968;2022-07-22T03:59:35;15.60;99.90
56725;DHT22;42608;52.776;6.968;2022-07-22T04:02:00;15.60;99.90
56725;DHT22;42608;52.776;6.968;2022-07-22T04:04:26;15.50;99.90
56725;DHT22;42608;52.776;6.968;2022-07-22T04:06:51;15.60;99.90
56725;DHT22;42608;52.776;6.968;2022-07-22T04:09:17;15.60;99.90
56725;DHT22;42608;52.776;6.968;2022-07-22T04:11:43;15.60;99.90
56725;DHT22;42608;52.776;6.968;2022-07-22T04:14:08;15.60;99.90
56725;DHT22;42608;52.776;6.968;2022-07-22T04:16:34;15.60;99.90
56725;DHT22;42608;52.776;6.968;2022-07-22T04:19:00;15.60;99.90
56725;DHT22;42608;52.776;6.968;2022-07-22T04:21:26;15.60;99.90
56725;DHT22;42608;52.776;6.968;2022-07-22T04:23:52;15.60;99.90
56725;DHT22;42608;52.776;6.968;2022-07-22T04:26:18;15.60;99.90
56725;DHT22;42608;52.776;6.968;2022-07-22T04:28:43;15.60;99.90
56725;DHT22;42608;52.776;6.968;2022-07-22T04:31:09;15.60;99.90
56725;DHT22;42608;52.776;6.968;2022-07-22T04:33:34;15.60;99.90
56725;DHT22;42608;52.776;6.968;2022-07-22T04:36:00;15.60;99.90
56725;DHT22;42608;52.776;6.968;2022-07-22T04:38:25;15.60;99.90
56725;DHT22;42608;52.776;6.968;2022-07-22T04:40:51;15.60;99.90
56725;DHT22;42608;52.776;6.968;2022-07-22T04:43:16;15.60;99.90
56725;DHT22;42608;52.776;6.968;2022-07-22T04:45:42;15.60;99.90
56725;DHT22;42608;52.776;6.968;2022-07-22T04:48:07;15.50;99.90
56725;DHT22;42608;52.776;6.968;2022-07-22T04:50:35;15.50;99.90
56725;DHT22;42608;52.776;6.968;2022-07-22T04:53:01;15.50;99.90
56725;DHT22;42608;52.776;6.968;2022-07-22T04:55:26;15.50;99.90
56725;DHT22;42608;52.776;6.968;2022-07-22T04:57:52;15.50;99.90
56725;DHT22;42608;52.776;6.968;2022-07-22T05:00:17;15.50;99.90
56725;DHT22;42608;52.776;6.968;2022-07-22T05:02:43;15.60;99.90
56725;DHT22;42608;52.776;6.968;2022-07-22T05:05:08;15.60;99.90
56725;DHT22;42608;52.776;6.968;2022-07-22T05:07:34;15.60;99.90
56725;DHT22;42608;52.776;6.968;2022-07-22T05:09:59;15.60;99.90
56725;DHT22;42608;52.776;6.968;2022-07-22T05:12:25;15.60;99.90
56725;DHT22;42608;52.776;6.968;2022-07-22T05:14:50;15.60;99.90
56725;DHT22;42608;52.776;6.968;2022-07-22T05:17:16;15.60;99.90
56725;DHT22;42608;52.776;6.968;2022-07-22T05:19:41;15.60;99.90
56725;DHT22;42608;52.776;6.968;2022-07-22T05:22:07;15.60;99.90
56725;DHT22;42608;52.776;6.968;2022-07-22T05:24:33;15.70;99.90
56725;DHT22;42608;52.776;6.968;2022-07-22T05:26:59;15.70;99.90
56725;DHT22;42608;52.776;6.968;2022-07-22T05:29:24;15.70;99.90
56725;DHT22;42608;52.776;6.968;2022-07-22T05:31:50;15.70;99.90
56725;DHT22;42608;52.776;6.968;2022-07-22T05:34:15;15.70;99.90
56725;DHT22;42608;52.776;6.968;2022-07-22T05:36:41;15.70;99.90
56725;DHT22;42608;52.776;6.968;2022-07-22T05:39:07;15.70;99.90
56725;DHT22;42608;52.776;6.968;2022-07-22T05:41:32;15.70;99.90
56725;DHT22;42608;52.776;6.968;2022-07-22T05:43:58;15.70;99.90
56725;DHT22;42608;52.776;6.968;2022-07-22T05:46:23;15.80;99.90
56725;DHT22;42608;52.776;6.968;2022-07-22T05:48:49;15.80;99.90
56725;DHT22;42608;52.776;6.968;2022-07-22T05:51:14;15.80;99.90
56725;DHT22;42608;52.776;6.968;2022-07-22T05:53:41;15.80;99.90
56725;DHT22;42608;52.776;6.968;2022-07-22T05:56:07;15.80;99.90
56725;DHT22;42608;52.776;6.968;2022-07-22T05:58:34;15.80;99.90
56725;DHT22;42608;52.776;6.968;2022-07-22T06:00:59;15.80;99.90
56725;DHT22;42608;52.776;6.968;2022-07-22T06:03:25;15.90;99.90
56725;DHT22;42608;52.776;6.968;2022-07-22T06:05:50;15.90;99.90
56725;DHT22;42608;52.776;6.968;2022-07-22T06:08:16;15.90;99.90
56725;DHT22;42608;52.776;6.968;2022-07-22T06:10:41;15.90;99.90
56725;DHT22;42608;52.776;6.968;2022-07-22T06:13:07;15.90;99.90
56725;DHT22;42608;52.776;6.968;2022-07-22T06:15:32;15.90;99.90
56725;DHT22;42608;52.776;6.968;2022-07-22T06:17:58;15.90;99.90
56725;DHT22;42608;52.776;6.968;2022-07-22T06:20:23;15.90;99.90
56725;DHT22;42608;52.776;6.968;2022-07-22T06:22:49;16.00;99.90
56725;DHT22;42608;52.776;6.968;2022-07-22T06:25:15;16.00;99.90
56725;DHT22;42608;52.776;6.968;2022-07-22T06:27:40;16.00;99.90
56725;DHT22;42608;52.776;6.968;2022-07-22T06:30:06;16.00;99.90
56725;DHT22;42608;52.776;6.968;2022-07-22T06:32:32;16.00;99.90
56725;DHT22;42608;52.776;6.968;2022-07-22T06:34:57;16.10;99.90
56725;DHT22;42608;52.776;6.968;2022-07-22T06:37:23;16.10;99.90
56725;DHT22;42608;52.776;6.968;2022-07-22T06:39:48;16.10;99.90
56725;DHT22;42608;52.776;6.968;2022-07-22T06:42:14;16.10;99.90
56725;DHT22;42608;52.776;6.968;2022-07-22T06:44:39;16.10;99.90
56725;DHT22;42608;52.776;6.968;2022-07-22T06:47:05;16.10;99.90
56725;DHT22;42608;52.776;6.968;2022-07-22T06:49:30;16.10;99.90
56725;DHT22;42608;52.776;6.968;2022-07-22T06:51:56;16.20;99.90
56725;DHT22;42608;52.776;6.968;2022-07-22T06:54:22;16.20;99.90
56725;DHT22;42608;52.776;6.968;2022-07-22T06:56:47;16.20;99.90
56725;DHT22;42608;52.776;6.968;2022-07-22T06:59:13;16.30;99.90
56725;DHT22;42608;52.776;6.968;2022-07-22T07:01:38;16.30;99.90
56725;DHT22;42608;52.776;6.968;2022-07-22T07:04:04;16.30;99.90
56725;DHT22;42608;52.776;6.968;2022-07-22T07:06:29;16.30;99.90
56725;DHT22;42608;52.776;6.968;2022-07-22T07:08:55;16.40;99.90
56725;DHT22;42608;52.776;6.968;2022-07-22T07:11:23;16.40;99.90
56725;DHT22;42608;52.776;6.968;2022-07-22T07:13:48;16.40;99.90
56725;DHT22;42608;52.776;6.968;2022-07-22T07:16:14;16.40;99.90
56725;DHT22;42608;52.776;6.968;2022-07-22T07:18:40;16.40;99.90
56725;DHT22;42608;52.776;6.968;2022-07-22T07:21:05;16.40;99.90
56725;DHT22;42608;52.776;6.968;2022-07-22T07:23:31;16.40;99.90
56725;DHT22;42608;52.776;6.968;2022-07-22T07:25:56;16.50;99.90
56725;DHT22;42608;52.776;6.968;2022-07-22T07:28:22;16.50;99.90
56725;DHT22;42608;52.776;6.968;2022-07-22T07:30:47;16.50;99.90
56725;DHT22;42608;52.776;6.968;2022-07-22T07:33:13;16.60;99.90
56725;DHT22;42608;52.776;6.968;2022-07-22T07:35:39;16.50;99.90
56725;DHT22;42608;52.776;6.968;2022-07-22T07:38:04;16.60;99.90
56725;DHT22;42608;52.776;6.968;2022-07-22T07:40:30;16.60;99.90
56725;DHT22;42608;52.776;6.968;2022-07-22T07:42:56;16.60;99.90
56725;DHT22;42608;52.776;6.968;2022-07-22T07:45:21;16.70;99.90
56725;DHT22;42608;52.776;6.968;2022-07-22T07:47:47;16.70;99.90
56725;DHT22;42608;52.776;6.968;2022-07-22T07:50:13;16.70;99.90
56725;DHT22;42608;52.776;6.968;2022-07-22T07:52:39;16.70;99.90
56725;DHT22;42608;52.776;6.968;2022-07-22T07:55:05;16.80;99.90
56725;DHT22;42608;52.776;6.968;2022-07-22T07:57:32;16.80;99.90
56725;DHT22;42608;52.776;6.968;2022-07-22T07:59:57;16.80;99.90
56725;DHT22;42608;52.776;6.968;2022-07-22T08:02:23;16.90;99.90
56725;DHT22;42608;52.776;6.968;2022-07-22T08:04:48;16.90;99.90
56725;DHT22;42608;52.776;6.968;2022-07-22T08:07:14;16.90;99.90
56725;DHT22;42608;52.776;6.968;2022-07-22T08:09:40;16.90;99.90
56725;DHT22;42608;52.776;6.968;2022-07-22T08:12:06;17.00;99.90
56725;DHT22;42608;52.776;6.968;2022-07-22T08:14:31;17.00;99.90
56725;DHT22;42608;52.776;6.968;2022-07-22T08:16:57;17.00;99.90
56725;DHT22;42608;52.776;6.968;2022-07-22T08:19:23;17.00;99.90
56725;DHT22;42608;52.776;6.968;2022-07-22T08:21:49;17.00;99.90
56725;DHT22;42608;52.776;6.968;2022-07-22T08:24:14;17.10;99.90
56725;DHT22;42608;52.776;6.968;2022-07-22T08:26:40;17.00;99.90
56725;DHT22;42608;52.776;6.968;2022-07-22T08:29:05;17.10;99.90
56725;DHT22;42608;52.776;6.968;2022-07-22T08:31:33;17.10;99.90
56725;DHT22;42608;52.776;6.968;2022-07-22T08:34:00;17.10;99.90
56725;DHT22;42608;52.776;6.968;2022-07-22T08:36:26;17.10;99.90
56725;DHT22;42608;52.776;6.968;2022-07-22T08:38:51;17.10;99.90
56725;DHT22;42608;52.776;6.968;2022-07-22T08:41:18;17.20;99.90
56725;DHT22;42608;52.776;6.968;2022-07-22T08:43:44;17.20;99.90
56725;DHT22;42608;52.776;6.968;2022-07-22T08:46:12;17.20;99.90
56725;DHT22;42608;52.776;6.968;2022-07-22T08:48:38;17.20;99.90
56725;DHT22;42608;52.776;6.968;2022-07-22T08:51:04;17.20;99.90
56725;DHT22;42608;52.776;6.968;2022-07-22T08:53:29;17.30;99.90
56725;DHT22;42608;52.776;6.968;2022-07-22T08:55:55;17.30;99.90
56725;DHT22;42608;52.776;6.968;2022-07-22T08:58:20;17.30;99.90
56725;DHT22;42608;52.776;6.968;2022-07-22T09:00:46;17.30;99.90
56725;DHT22;42608;52.776;6.968;2022-07-22T09:03:22;17.40;99.90
56725;DHT22;42608;52.776;6.968;2022-07-22T09:05:51;17.40;99.90
56725;DHT22;42608;52.776;6.968;2022-07-22T09:08:17;17.40;99.90
56725;DHT22;42608;52.776;6.968;2022-07-22T09:10:43;17.50;99.90
56725;DHT22;42608;52.776;6.968;2022-07-22T09:13:09;17.50;99.90
56725;DHT22;42608;52.776;6.968;2022-07-22T09:15:36;17.50;99.90
56725;DHT22;42608;52.776;6.968;2022-07-22T09:18:02;17.50;99.90
56725;DHT22;42608;52.776;6.968;2022-07-22T09:20:28;17.50;99.90
56725;DHT22;42608;52.776;6.968;2022-07-22T09:22:54;17.50;99.90
56725;DHT22;42608;52.776;6.968;2022-07-22T09:25:21;17.60;99.90
56725;DHT22;42608;52.776;6.968;2022-07-22T09:27:47;17.50;99.90
56725;DHT22;42608;52.776;6.968;2022-07-22T09:30:32;17.50;99.90
56725;DHT22;42608;52.776;6.968;2022-07-22T09:32:57;17.50;99.90
56725;DHT22;42608;52.776;6.968;2022-07-22T09:35:23;17.60;99.90
56725;DHT22;42608;52.776;6.968;2022-07-22T09:38:00;17.60;99.90
56725;DHT22;42608;52.776;6.968;2022-07-22T09:40:27;17.60;99.90
56725;DHT22;42608;52.776;6.968;2022-07-22T09:42:57;17.70;99.90
56725;DHT22;42608;52.776;6.968;2022-07-22T09:45:23;17.70;99.90
56725;DHT22;42608;52.776;6.968;2022-07-22T09:47:49;17.70;99.90
56725;DHT22;42608;52.776;6.968;2022-07-22T09:52:44;17.80;99.90
56725;DHT22;42608;52.776;6.968;2022-07-22T09:55:10;17.80;99.90
56725;DHT22;42608;52.776;6.968;2022-07-22T09:57:35;17.80;99.90
56725;DHT22;42608;52.776;6.968;2022-07-22T10:00:01;17.90;99.90
56725;DHT22;42608;52.776;6.968;2022-07-22T10:02:27;17.90;99.90
56725;DHT22;42608;52.776;6.968;2022-07-22T10:04:54;17.90;99.90
56725;DHT22;42608;52.776;6.968;2022-07-22T10:07:21;17.90;99.90
56725;DHT22;42608;52.776;6.968;2022-07-22T10:09:47;17.90;99.90
56725;DHT22;42608;52.776;6.968;2022-07-22T10:12:13;17.90;99.90
56725;DHT22;42608;52.776;6.968;2022-07-22T10:14:40;17.90;99.90
56725;DHT22;42608;52.776;6.968;2022-07-22T10:17:05;17.90;99.90
56725;DHT22;42608;52.776;6.968;2022-07-22T10:19:31;17.90;99.90
56725;DHT22;42608;52.776;6.968;2022-07-22T10:21:57;17.90;99.90
56725;DHT22;42608;52.776;6.968;2022-07-22T10:24:22;17.90;99.90
56725;DHT22;42608;52.776;6.968;2022-07-22T10:26:53;17.80;99.90
56725;DHT22;42608;52.776;6.968;2022-07-22T10:29:29;17.90;99.90
56725;DHT22;42608;52.776;6.968;2022-07-22T10:34:39;17.90;99.90
56725;DHT22;42608;52.776;6.968;2022-07-22T10:37:22;17.90;99.90
56725;DHT22;42608;52.776;6.968;2022-07-22T10:40:24;18.00;99.90
56725;DHT22;42608;52.776;6.968;2022-07-22T10:45:38;18.10;99.90
56725;DHT22;42608;52.776;6.968;2022-07-22T10:48:06;18.10;99.90
56725;DHT22;42608;52.776;6.968;2022-07-22T10:53:03;18.20;99.90
56725;DHT22;42608;52.776;6.968;2022-07-22T10:55:29;18.30;99.90
56725;DHT22;42608;52.776;6.968;2022-07-22T10:57:55;18.30;99.90
56725;DHT22;42608;52.776;6.968;2022-07-22T11:00:20;18.40;99.90
56725;DHT22;42608;52.776;6.968;2022-07-22T11:02:46;18.50;99.90
56725;DHT22;42608;52.776;6.968;2022-07-22T11:05:12;18.50;99.90
56725;DHT22;42608;52.776;6.968;2022-07-22T11:07:42;18.60;99.90
56725;DHT22;42608;52.776;6.968;2022-07-22T11:10:09;18.60;99.90
56725;DHT22;42608;52.776;6.968;2022-07-22T11:12:35;18.70;99.90
56725;DHT22;42608;52.776;6.968;2022-07-22T11:15:01;18.70;99.90
56725;DHT22;42608;52.776;6.968;2022-07-22T11:17:26;18.70;99.90
56725;DHT22;42608;52.776;6.968;2022-07-22T11:19:52;18.70;99.90
56725;DHT22;42608;52.776;6.968;2022-07-22T11:22:17;18.70;99.90
56725;DHT22;42608;52.776;6.968;2022-07-22T11:24:47;18.70;99.90
56725;DHT22;42608;52.776;6.968;2022-07-22T11:27:14;18.60;99.90
56725;DHT22;42608;52.776;6.968;2022-07-22T11:29:40;18.60;99.90
56725;DHT22;42608;52.776;6.968;2022-07-22T11:32:09;18.60;99.90
56725;DHT22;42608;52.776;6.968;2022-07-22T11:34:35;18.70;99.90
56725;DHT22;42608;52.776;6.968;2022-07-22T11:37:01;18.70;99.90
56725;DHT22;42608;52.776;6.968;2022-07-22T11:39:27;18.70;99.90
56725;DHT22;42608;52.776;6.968;2022-07-22T11:41:54;18.70;99.90
56725;DHT22;42608;52.776;6.968;2022-07-22T11:44:21;18.70;99.90
56725;DHT22;42608;52.776;6.968;2022-07-22T11:46:47;18.70;99.90
56725;DHT22;42608;52.776;6.968;2022-07-22T11:49:14;18.70;99.90
56725;DHT22;42608;52.776;6.968;2022-07-22T11:51:40;18.70;99.90
56725;DHT22;42608;52.776;6.968;2022-07-22T11:54:05;18.70;99.90
56725;DHT22;42608;52.776;6.968;2022-07-22T11:56:31;18.60;99.90
56725;DHT22;42608;52.776;6.968;2022-07-22T11:58:57;18.60;99.90
56725;DHT22;42608;52.776;6.968;2022-07-22T12:01:27;18.60;99.90
56725;DHT22;42608;52.776;6.968;2022-07-22T12:03:54;18.60;99.90
56725;DHT22;42608;52.776;6.968;2022-07-22T12:06:20;18.60;99.90
56725;DHT22;42608;52.776;6.968;2022-07-22T12:08:47;18.50;99.90
56725;DHT22;42608;52.776;6.968;2022-07-22T12:11:14;18.60;99.90
56725;DHT22;42608;52.776;6.968;2022-07-22T12:13:41;18.60;99.90
56725;DHT22;42608;52.776;6.968;2022-07-22T12:16:27;18.60;99.90
56725;DHT22;42608;52.776;6.968;2022-07-22T12:19:13;18.60;99.90
56725;DHT22;42608;52.776;6.968;2022-07-22T12:24:35;18.60;99.90
56725;DHT22;42608;52.776;6.968;2022-07-22T12:27:02;18.60;99.90
56725;DHT22;42608;52.776;6.968;2022-07-22T12:32:00;18.60;99.90
56725;DHT22;42608;52.776;6.968;2022-07-22T12:36:59;18.60;99.90
56725;DHT22;42608;52.776;6.968;2022-07-22T12:39:25;18.60;99.90
56725;DHT22;42608;52.776;6.968;2022-07-22T12:41:51;18.70;99.90
56725;DHT22;42608;52.776;6.968;2022-07-22T12:44:22;18.80;99.90
56725;DHT22;42608;52.776;6.968;2022-07-22T12:46:48;18.70;99.90
56725;DHT22;42608;52.776;6.968;2022-07-22T12:49:15;18.80;99.90
56725;DHT22;42608;52.776;6.968;2022-07-22T12:51:40;18.80;99.90
56725;DHT22;42608;52.776;6.968;2022-07-22T12:54:06;18.80;99.90
56725;DHT22;42608;52.776;6.968;2022-07-22T12:56:32;18.80;99.90
56725;DHT22;42608;52.776;6.968;2022-07-22T12:58:58;18.80;99.90
56725;DHT22;42608;52.776;6.968;2022-07-22T13:01:24;18.90;99.90
56725;DHT22;42608;52.776;6.968;2022-07-22T13:03:50;18.90;99.90
56725;DHT22;42608;52.776;6.968;2022-07-22T13:06:15;18.90;99.90
56725;DHT22;42608;52.776;6.968;2022-07-22T13:08:41;18.90;99.90
56725;DHT22;42608;52.776;6.968;2022-07-22T13:11:06;18.90;99.90
56725;DHT22;42608;52.776;6.968;2022-07-22T13:13:32;18.90;99.90
56725;DHT22;42608;52.776;6.968;2022-07-22T13:15:57;18.90;99.90
56725;DHT22;42608;52.776;6.968;2022-07-22T13:18:23;18.90;99.90
56725;DHT22;42608;52.776;6.968;2022-07-22T13:20:49;19.00;99.90
56725;DHT22;42608;52.776;6.968;2022-07-22T13:23:14;19.10;99.90
56725;DHT22;42608;52.776;6.968;2022-07-22T13:25:40;19.10;99.90
56725;DHT22;42608;52.776;6.968;2022-07-22T13:28:06;19.10;99.90
56725;DHT22;42608;52.776;6.968;2022-07-22T13:30:31;19.10;99.90
56725;DHT22;42608;52.776;6.968;2022-07-22T13:32:57;19.10;99.90
56725;DHT22;42608;52.776;6.968;2022-07-22T13:35:22;19.10;99.90
56725;DHT22;42608;52.776;6.968;2022-07-22T13:37:48;19.10;99.90
56725;DHT22;42608;52.776;6.968;2022-07-22T13:40:14;19.10;99.90
56725;DHT22;42608;52.776;6.968;2022-07-22T13:42:40;19.10;99.90
56725;DHT22;42608;52.776;6.968;2022-07-22T13:45:05;19.10;99.90
56725;DHT22;42608;52.776;6.968;2022-07-22T13:47:31;19.10;99.90
56725;DHT22;42608;52.776;6.968;2022-07-22T13:49:57;19.10;99.90
56725;DHT22;42608;52.776;6.968;2022-07-22T13:52:23;19.10;99.90
56725;DHT22;42608;52.776;6.968;2022-07-22T13:54:49;19.10;99.90
56725;DHT22;42608;52.776;6.968;2022-07-22T13:57:15;19.10;99.90
56725;DHT22;42608;52.776;6.968;2022-07-22T13:59:41;19.10;99.90
56725;DHT22;42608;52.776;6.968;2022-07-22T14:02:06;19.20;99.90
56725;DHT22;42608;52.776;6.968;2022-07-22T14:04:32;19.30;99.90
56725;DHT22;42608;52.776;6.968;2022-07-22T14:06:58;19.30;99.90
56725;DHT22;42608;52.776;6.968;2022-07-22T14:09:23;19.30;99.90
56725;DHT22;42608;52.776;6.968;2022-07-22T14:11:49;19.30;99.90
56725;DHT22;42608;52.776;6.968;2022-07-22T14:14:14;19.30;99.90
56725;DHT22;42608;52.776;6.968;2022-07-22T14:16:40;19.30;99.90
56725;DHT22;42608;52.776;6.968;2022-07-22T14:21:31;19.30;99.90
56725;DHT22;42608;52.776;6.968;2022-07-22T14:23:57;19.30;99.90
56725;DHT22;42608;52.776;6.968;2022-07-22T14:26:23;19.30;99.90
56725;DHT22;42608;52.776;6.968;2022-07-22T14:28:48;19.40;99.90
56725;DHT22;42608;52.776;6.968;2022-07-22T14:31:14;19.30;99.90
56725;DHT22;42608;52.776;6.968;2022-07-22T14:33:39;19.30;99.90
56725;DHT22;42608;52.776;6.968;2022-07-22T14:36:05;19.40;99.90
56725;DHT22;42608;52.776;6.968;2022-07-22T14:38:31;19.40;99.90
56725;DHT22;42608;52.776;6.968;2022-07-22T14:40:56;19.50;99.90
56725;DHT22;42608;52.776;6.968;2022-07-22T14:43:22;19.50;99.90
56725;DHT22;42608;52.776;6.968;2022-07-22T14:45:48;19.60;99.90
56725;DHT22;42608;52.776;6.968;2022-07-22T14:48:13;19.60;99.90
56725;DHT22;42608;52.776;6.968;2022-07-22T14:50:39;19.50;99.90
56725;DHT22;42608;52.776;6.968;2022-07-22T14:53:04;19.60;99.90
56725;DHT22;42608;52.776;6.968;2022-07-22T14:55:30;19.50;99.90
56725;DHT22;42608;52.776;6.968;2022-07-22T14:57:55;19.60;99.90
56725;DHT22;42608;52.776;6.968;2022-07-22T15:00:21;19.60;99.90
56725;DHT22;42608;52.776;6.968;2022-07-22T15:02:47;19.50;99.90
56725;DHT22;42608;52.776;6.968;2022-07-22T15:05:12;19.60;99.90
56725;DHT22;42608;52.776;6.968;2022-07-22T15:07:38;19.60;99.90
56725;DHT22;42608;52.776;6.968;2022-07-22T15:10:06;19.60;99.90
56725;DHT22;42608;52.776;6.968;2022-07-22T15:12:31;19.60;99.90
56725;DHT22;42608;52.776;6.968;2022-07-22T15:14:57;19.60;99.90
56725;DHT22;42608;52.776;6.968;2022-07-22T15:17:22;19.50;99.90
56725;DHT22;42608;52.776;6.968;2022-07-22T15:19:48;19.50;99.90
56725;DHT22;42608;52.776;6.968;2022-07-22T15:22:13;19.40;99.90
56725;DHT22;42608;52.776;6.968;2022-07-22T15:24:39;19.40;99.90
56725;DHT22;42608;52.776;6.968;2022-07-22T15:27:05;19.40;99.90
56725;DHT22;42608;52.776;6.968;2022-07-22T15:29:30;19.40;99.90
56725;DHT22;42608;52.776;6.968;2022-07-22T15:31:56;19.30;99.90
56725;DHT22;42608;52.776;6.968;2022-07-22T15:34:21;19.30;99.90
56725;DHT22;42608;52.776;6.968;2022-07-22T15:36:47;19.20;99.90
56725;DHT22;42608;52.776;6.968;2022-07-22T15:39:13;19.20;99.90
56725;DHT22;42608;52.776;6.968;2022-07-22T15:41:39;19.10;99.90
56725;DHT22;42608;52.776;6.968;2022-07-22T15:44:05;19.10;99.90